Time;durP1;ratioP1;P1;durP2;ratioP2;P2;SDS_P1;SDS_P2;PMS_P1;PMS_P2;Temp;Humidity;BMP_temperature;BMP_pressure;BME280_temperature;BME280_humidity;BME280_pressure;Samples;Min_cycle;Max_cycle;Signal;HPM_P1;HPM_P2
2022/07/01 00:00:11;;;;;;;6.38;5.25;;;;;;;22.01;60.37;98063.44;4132437;28;20026;-73
2022/07/01 00:02:13;;;;;;;5.60;5.10;;;;;;;22.08;61.27;98082.88;4134894;28;20018;-73
2022/07/01 00:04:13;;;;;;;9.13;5.32;;;;;;;22.01;62.04;98088.78;4134281;28;20481;-74
2022/07/01 00:06:14;;;;;;;8.45;6.47;;;;;;;21.95;64.12;98085.03;4132478;28;20374;-73
2022/07/01 00:08:14;;;;;;;8.38;6.43;;;;;;;21.87;65.54;98088.13;4135473;28;20036;-73
2022/07/01 00:10:15;;;;;;;9.65;6.57;;;;;;;21.86;65.49;98083.75;4132454;28;20025;-73
2022/07/01 00:12:15;;;;;;;8.75;6.80;;;;;;;21.74;65.79;98078.97;4134266;28;20084;-73
2022/07/01 00:14:16;;;;;;;10.88;7.00;;;;;;;21.62;65.67;98088.31;4132596;28;20405;-73
2022/07/01 00:16:16;;;;;;;6.75;6.10;;;;;;;21.56;65.37;98078.91;4132892;28;20034;-73
2022/07/01 00:18:16;;;;;;;11.27;6.40;;;;;;;21.55;64.45;98078.13;4134426;28;20091;-73
2022/07/01 00:20:18;;;;;;;6.57;5.97;;;;;;;21.54;64.75;98087.03;4133349;28;20462;-73
2022/07/01 00:22:18;;;;;;;7.68;5.78;;;;;;;21.53;64.67;98096.72;4131543;28;20288;-73
2022/07/01 00:24:18;;;;;;;8.20;6.05;;;;;;;21.49;64.78;98104.50;4134597;28;20394;-73
2022/07/01 00:26:19;;;;;;;8.95;5.55;;;;;;;21.41;65.35;98106.81;4132467;28;20036;-73
2022/07/01 00:28:19;;;;;;;6.18;5.57;;;;;;;21.44;65.19;98099.50;4135123;28;20037;-73
2022/07/01 00:30:20;;;;;;;7.65;5.88;;;;;;;21.34;65.83;98109.88;4136064;28;20781;-73
2022/07/01 00:32:20;;;;;;;7.07;6.38;;;;;;;21.32;66.42;98115.19;4136816;28;20026;-73
2022/07/01 00:34:20;;;;;;;7.82;6.93;;;;;;;21.25;66.91;98113.41;4136802;28;20062;-73
2022/07/01 00:36:21;;;;;;;7.05;6.38;;;;;;;21.21;67.18;98109.94;4138028;28;20084;-73
2022/07/01 00:38:21;;;;;;;8.27;6.93;;;;;;;21.12;67.90;98107.06;4137062;28;20422;-73
2022/07/01 00:40:21;;;;;;;9.63;7.05;;;;;;;21.01;68.03;98110.25;4135358;28;20705;-73
2022/07/01 00:42:22;;;;;;;6.82;6.05;;;;;;;20.97;68.17;98118.06;4137913;28;20026;-73
2022/07/01 00:44:22;;;;;;;7.10;6.40;;;;;;;20.82;69.05;98119.00;4135915;28;20064;-73
2022/07/01 00:46:24;;;;;;;9.02;6.88;;;;;;;20.80;69.57;98130.72;4138305;28;20026;-73
2022/07/01 00:48:24;;;;;;;7.45;6.78;;;;;;;20.75;69.97;98145.34;4135817;28;20123;-73
2022/07/01 00:50:25;;;;;;;14.48;7.38;;;;;;;20.60;70.61;98144.25;4135455;28;20034;-73
2022/07/01 00:52:25;;;;;;;11.25;7.28;;;;;;;20.64;70.77;98144.94;4137345;28;20375;-73
2022/07/01 00:54:26;;;;;;;11.00;7.20;;;;;;;20.56;71.15;98135.19;4137793;28;20112;-73
2022/07/01 00:56:27;;;;;;;8.63;7.47;;;;;;;20.51;71.35;98132.94;4136257;28;20034;-73
2022/07/01 00:58:28;;;;;;;11.60;7.13;;;;;;;20.56;71.49;98140.81;4136649;28;20034;-73
2022/07/01 01:00:29;;;;;;;10.07;7.35;;;;;;;20.48;71.80;98134.63;4137317;28;20030;-73
2022/07/01 01:02:30;;;;;;;8.82;6.72;;;;;;;20.47;71.71;98117.00;4137461;28;20174;-73
2022/07/01 01:04:31;;;;;;;12.70;7.20;;;;;;;20.42;72.12;98130.78;4136257;28;20022;-73
2022/07/01 01:06:31;;;;;;;7.72;6.95;;;;;;;20.32;72.86;98115.06;4138498;28;20026;-73
2022/07/01 01:08:32;;;;;;;7.88;7.10;;;;;;;20.24;73.38;98124.97;4135493;28;20092;-73
2022/07/01 01:10:32;;;;;;;8.32;7.57;;;;;;;20.14;73.77;98119.25;4135707;28;20036;-73
2022/07/01 01:12:33;;;;;;;10.63;7.57;;;;;;;20.13;73.83;98128.94;4136206;28;20064;-73
2022/07/01 01:14:47;;;;;;;7.40;6.78;;;;;;;20.12;73.93;98118.16;4137249;28;20377;-73
2022/07/01 01:16:48;;;;;;;8.55;7.65;;;;;;;20.08;74.05;98121.06;4136709;28;20068;-73
2022/07/01 01:18:49;;;;;;;11.52;7.95;;;;;;;20.07;74.17;98141.16;4135798;28;20096;-73
2022/07/01 01:20:49;;;;;;;9.80;7.07;;;;;;;20.11;74.05;98142.66;4137480;28;20052;-73
2022/07/01 01:22:49;;;;;;;8.00;7.20;;;;;;;20.07;74.07;98150.38;4134998;28;20489;-73
2022/07/01 01:24:50;;;;;;;9.32;8.13;;;;;;;20.03;74.33;98160.97;4136969;28;20033;-73
2022/07/01 01:26:50;;;;;;;8.45;7.22;;;;;;;20.03;74.42;98160.97;4136692;28;20060;-73
2022/07/01 01:28:51;;;;;;;10.25;7.97;;;;;;;20.04;74.59;98173.75;4134358;28;20045;-73
2022/07/01 01:30:52;;;;;;;8.10;7.30;;;;;;;20.06;74.35;98185.31;4136149;28;20038;-73
2022/07/01 01:32:52;;;;;;;10.20;7.15;;;;;;;19.95;74.84;98186.91;4134554;28;20034;-73
2022/07/01 01:34:53;;;;;;;8.48;7.65;;;;;;;19.96;74.99;98199.69;4136502;28;20362;-73
2022/07/01 01:36:53;;;;;;;8.32;7.40;;;;;;;19.88;75.25;98205.53;4138178;28;20018;-73
2022/07/01 01:38:57;;;;;;;8.50;7.32;;;;;;;19.83;75.28;98200.44;4136794;28;20118;-72
2022/07/01 01:40:57;;;;;;;8.93;7.97;;;;;;;19.81;75.73;98210.56;4135791;28;20128;-72
2022/07/01 01:42:58;;;;;;;8.70;7.82;;;;;;;19.82;75.41;98207.31;4135153;28;20065;-72
2022/07/01 01:44:58;;;;;;;8.63;7.30;;;;;;;19.73;75.73;98218.41;4135534;28;20032;-72
2022/07/01 01:46:58;;;;;;;10.10;8.02;;;;;;;19.70;75.78;98230.53;4136315;28;20389;-72
2022/07/01 01:48:59;;;;;;;9.30;8.25;;;;;;;19.67;75.71;98219.41;4135834;28;20121;-72
2022/07/01 01:50:59;;;;;;;10.52;8.30;;;;;;;19.57;76.13;98238.13;4136826;28;20084;-72
2022/07/01 01:52:59;;;;;;;9.77;8.88;;;;;;;19.55;76.23;98232.94;4136030;28;20348;-72
2022/07/01 01:55:00;;;;;;;9.75;8.77;;;;;;;19.54;76.21;98239.78;4135308;28;20034;-72
2022/07/01 01:57:01;;;;;;;10.30;9.30;;;;;;;19.50;76.46;98241.88;4137260;28;20040;-72
2022/07/01 01:59:02;;;;;;;10.77;9.65;;;;;;;19.43;76.56;98235.69;4135398;28;20419;-72
2022/07/01 02:01:02;;;;;;;11.30;9.73;;;;;;;19.46;76.76;98232.00;4134349;28;20033;-72
2022/07/01 02:03:03;;;;;;;9.70;8.77;;;;;;;19.39;76.76;98232.97;4135902;28;20459;-72
2022/07/01 02:05:10;;;;;;;10.32;9.15;;;;;;;19.21;77.71;98232.69;4135552;28;20188;-72
2022/07/01 02:07:10;;;;;;;11.50;9.35;;;;;;;19.08;78.35;98229.81;4137599;28;20297;-72
2022/07/01 02:09:10;;;;;;;10.27;9.35;;;;;;;19.07;78.22;98229.03;4134210;28;20481;-72
2022/07/01 02:11:11;;;;;;;10.77;9.68;;;;;;;19.05;78.30;98223.09;4134337;28;20030;-72
2022/07/01 02:13:11;;;;;;;11.52;9.45;;;;;;;18.95;78.68;98232.56;4134251;28;20112;-72
2022/07/01 02:15:11;;;;;;;12.77;9.48;;;;;;;19.00;78.73;98246.03;4137120;28;20470;-72
2022/07/01 02:17:12;;;;;;;11.27;9.73;;;;;;;18.92;78.90;98249.47;4136183;28;20029;-72
2022/07/01 02:19:12;;;;;;;10.50;9.57;;;;;;;18.85;79.49;98266.47;4136603;28;20549;-72
2022/07/01 02:21:13;;;;;;;12.85;10.57;;;;;;;18.78;79.77;98256.19;4137955;28;20100;-72
2022/07/01 02:23:13;;;;;;;11.90;10.55;;;;;;;18.74;80.22;98273.13;4137998;28;20334;-72
2022/07/01 02:25:13;;;;;;;11.80;10.57;;;;;;;18.64;81.21;98270.56;4137884;28;20112;-72
2022/07/01 02:27:14;;;;;;;13.27;10.23;;;;;;;18.68;80.51;98272.06;4137267;28;20404;-72
2022/07/01 02:29:14;;;;;;;12.05;10.23;;;;;;;18.61;80.71;98279.81;4136946;28;20061;-72
2022/07/01 02:31:14;;;;;;;11.23;10.13;;;;;;;18.55;80.97;98276.78;4137113;28;20384;-72
2022/07/01 02:33:15;;;;;;;12.77;10.73;;;;;;;18.39;81.23;98279.56;4136488;28;20365;-72
2022/07/01 02:35:15;;;;;;;11.40;10.20;;;;;;;18.39;80.97;98288.75;4137569;28;20026;-72
2022/07/01 02:37:15;;;;;;;11.05;9.85;;;;;;;18.34;81.45;98299.66;4135843;28;20364;-72
2022/07/01 02:39:16;;;;;;;12.70;10.25;;;;;;;18.32;81.33;98300.09;4135931;28;20133;-72
2022/07/01 02:41:16;;;;;;;12.23;10.55;;;;;;;18.32;80.96;98314.09;4137249;28;20026;-72
2022/07/01 02:43:16;;;;;;;11.18;9.57;;;;;;;18.22;81.53;98318.72;4137620;28;20033;-72
2022/07/01 02:45:17;;;;;;;12.40;10.57;;;;;;;18.19;81.39;98327.19;4137208;28;20099;-72
2022/07/01 02:47:17;;;;;;;11.45;10.25;;;;;;;18.16;81.31;98334.44;4137634;28;20072;-72
2022/07/01 02:49:17;;;;;;;12.43;10.77;;;;;;;18.09;81.37;98348.59;4136563;28;20462;-72
2022/07/01 02:51:18;;;;;;;12.88;11.13;;;;;;;18.02;81.48;98345.94;4135920;28;20061;-72
2022/07/01 02:53:18;;;;;;;12.77;11.45;;;;;;;17.91;81.95;98357.34;4136619;28;20353;-72
2022/07/01 02:55:18;;;;;;;15.02;11.00;;;;;;;17.82;82.27;98371.13;4136811;28;20038;-72
2022/07/01 02:57:19;;;;;;;12.65;11.10;;;;;;;17.83;82.56;98385.91;4137662;28;20033;-72
2022/07/01 02:59:19;;;;;;;15.32;11.50;;;;;;;17.81;83.05;98388.34;4136840;28;20087;-72
2022/07/01 03:01:19;;;;;;;14.13;11.93;;;;;;;17.78;82.64;98400.38;4136940;28;20030;-72
2022/07/01 03:03:20;;;;;;;15.07;11.95;;;;;;;17.85;82.44;98403.06;4138038;28;20048;-72
2022/07/01 03:05:21;;;;;;;14.18;12.30;;;;;;;17.88;82.12;98389.00;4137370;28;20033;-72
2022/07/01 03:07:21;;;;;;;15.13;13.27;;;;;;;17.90;82.05;98388.56;4137373;28;20038;-72
2022/07/01 03:09:22;;;;;;;18.02;13.68;;;;;;;17.92;81.86;98391.72;4134603;28;20470;-72
2022/07/01 03:11:22;;;;;;;14.23;12.30;;;;;;;17.92;82.32;98386.91;4135609;28;20040;-72
2022/07/01 03:13:23;;;;;;;19.40;13.13;;;;;;;17.92;81.82;98380.53;4136457;28;20408;-72
2022/07/01 03:15:23;;;;;;;17.30;14.32;;;;;;;17.89;80.83;98382.19;4135354;28;20061;-72
2022/07/01 03:17:25;;;;;;;15.45;13.80;;;;;;;17.88;81.10;98368.63;4137614;28;20030;-72
2022/07/01 03:19:25;;;;;;;18.17;14.03;;;;;;;17.97;80.07;98382.84;4136657;28;20124;-72
2022/07/01 03:21:25;;;;;;;14.95;13.32;;;;;;;17.91;80.22;98379.75;4136270;28;20062;-72
2022/07/01 03:23:26;;;;;;;17.23;13.85;;;;;;;17.84;80.64;98376.28;4137371;28;20048;-72
2022/07/01 03:25:26;;;;;;;16.15;13.57;;;;;;;17.78;81.03;98373.19;4135147;28;20462;-72
2022/07/01 03:27:27;;;;;;;16.52;14.30;;;;;;;17.64;82.14;98377.03;4136936;28;20034;-72
2022/07/01 03:29:27;;;;;;;15.85;12.70;;;;;;;17.65;81.46;98381.41;4135881;28;20334;-72
2022/07/01 03:31:27;;;;;;;14.27;12.63;;;;;;;17.48;81.97;98381.72;4133552;28;20342;-72
2022/07/01 03:33:28;;;;;;;13.77;12.32;;;;;;;17.35;82.42;98393.50;4136812;28;20092;-72
2022/07/01 03:35:40;;;;;;;14.65;12.52;;;;;;;17.34;82.45;98403.13;4135846;28;20527;-72
2022/07/01 03:37:40;;;;;;;13.77;12.27;;;;;;;17.23;82.63;98391.34;4136597;28;20030;-72
2022/07/01 03:39:42;;;;;;;13.18;11.75;;;;;;;17.16;83.06;98390.66;4135103;28;20504;-72
2022/07/01 03:41:42;;;;;;;16.65;12.85;;;;;;;17.04;83.17;98390.03;4134205;28;20280;-72
2022/07/01 03:43:42;;;;;;;13.10;11.35;;;;;;;17.02;83.18;98395.25;4136368;28;20781;-72
2022/07/01 03:45:42;;;;;;;16.10;12.07;;;;;;;17.03;83.19;98410.81;4134838;28;20066;-72
2022/07/01 03:47:50;;;;;;;15.52;11.70;;;;;;;17.04;82.46;98417.19;4134342;28;20106;-72
2022/07/01 03:49:50;;;;;;;13.02;10.38;;;;;;;17.02;82.32;98423.19;4136031;28;20038;-72
2022/07/01 03:51:51;;;;;;;16.40;10.20;;;;;;;16.89;82.38;98418.63;4134481;28;20176;-72
2022/07/01 03:56:10;;;;;;;14.25;10.32;;;;;;;16.87;82.03;98429.41;4136523;28;20045;-72
2022/07/01 03:58:10;;;;;;;12.90;10.60;;;;;;;16.88;82.08;98426.22;4135330;28;20455;-72
2022/07/01 04:00:11;;;;;;;13.73;10.63;;;;;;;16.87;82.00;98433.00;4131498;28;20073;-72
2022/07/01 04:02:12;;;;;;;12.30;10.52;;;;;;;16.92;81.97;98437.34;4131636;28;20048;-72
2022/07/01 04:04:12;;;;;;;13.18;10.73;;;;;;;16.91;81.48;98449.75;4135067;28;20112;-72
2022/07/01 04:06:12;;;;;;;12.38;8.95;;;;;;;16.93;81.26;98462.06;4133137;28;20571;-72
2022/07/01 04:08:14;;;;;;;14.80;10.15;;;;;;;16.86;81.33;98467.75;4133813;28;20144;-72
2022/07/01 04:10:14;;;;;;;12.10;8.43;;;;;;;16.89;81.26;98472.53;4132177;28;20088;-72
2022/07/01 04:12:15;;;;;;;11.82;9.35;;;;;;;16.93;80.61;98462.06;4134935;28;20282;-72
2022/07/01 04:14:15;;;;;;;10.60;8.82;;;;;;;16.91;80.58;98461.69;4131957;28;20584;-72
2022/07/01 04:16:20;;;;;;;15.27;9.60;;;;;;;16.80;80.77;98464.66;4134554;28;20084;-71
2022/07/01 04:18:20;;;;;;;11.38;8.85;;;;;;;16.87;80.78;98462.94;4132277;28;20033;-72
2022/07/01 04:20:20;;;;;;;9.88;8.50;;;;;;;16.95;80.44;98472.81;4133656;28;20171;-72
2022/07/01 04:22:42;;;;;;;13.18;8.77;;;;;;;16.85;80.66;98471.75;4133647;28;20033;-72
2022/07/01 04:24:41;;;;;;;11.02;8.18;;;;;;;16.94;80.50;98460.06;4132177;28;20335;-72
2022/07/01 04:26:43;;;;;;;10.25;8.23;;;;;;;17.04;80.34;98459.09;4134863;28;20044;-72
2022/07/01 04:28:43;;;;;;;10.45;7.55;;;;;;;17.11;79.81;98457.00;4133470;28;20032;-72
2022/07/01 04:30:43;;;;;;;9.13;7.60;;;;;;;17.18;79.15;98467.28;4134796;28;20033;-72
2022/07/01 04:32:44;;;;;;;8.57;7.25;;;;;;;17.30;79.05;98479.91;4133155;28;20029;-72
2022/07/01 04:34:44;;;;;;;9.43;7.38;;;;;;;17.35;78.69;98482.22;4134613;28;20030;-72
2022/07/01 04:36:44;;;;;;;9.90;7.80;;;;;;;17.30;78.34;98485.50;4134081;28;20032;-72
2022/07/01 04:38:45;;;;;;;13.57;8.30;;;;;;;17.26;78.31;98476.38;4132448;28;20103;-72
2022/07/01 04:43:04;;;;;;;12.07;7.95;;;;;;;17.07;79.09;98470.25;4134679;28;20095;-71
2022/07/01 04:45:05;;;;;;;10.50;7.80;;;;;;;16.98;79.04;98460.81;4131766;28;20065;-72
2022/07/01 04:47:05;;;;;;;8.50;6.85;;;;;;;17.01;78.99;98463.53;4133324;28;20192;-72
2022/07/01 04:49:06;;;;;;;7.05;6.32;;;;;;;16.88;79.08;98456.97;4135234;28;20523;-71
2022/07/01 04:51:07;;;;;;;8.02;6.68;;;;;;;16.89;79.04;98449.38;4134845;28;20037;-71
2022/07/01 04:53:07;;;;;;;6.85;6.18;;;;;;;16.79;79.71;98443.50;4135888;28;20487;-72
2022/07/01 04:55:08;;;;;;;7.28;5.80;;;;;;;16.73;79.58;98416.47;4133965;28;20068;-72
2022/07/01 04:57:08;;;;;;;6.80;5.70;;;;;;;16.73;79.41;98403.28;4135237;28;20038;-72
2022/07/01 04:59:09;;;;;;;6.30;5.53;;;;;;;16.49;80.97;98413.56;4134937;28;20494;-72
2022/07/01 05:01:09;;;;;;;7.10;5.63;;;;;;;16.58;80.86;98427.78;4135876;28;20030;-72
2022/07/01 05:03:09;;;;;;;5.90;5.30;;;;;;;16.59;80.59;98439.75;4133121;28;20081;-72
2022/07/01 05:05:10;;;;;;;6.00;5.40;;;;;;;16.58;80.74;98435.38;4115717;28;20034;-72
2022/07/01 05:07:27;;;;;;;7.43;5.57;;;;;;;16.57;80.56;98456.16;4078933;28;20355;-72
2022/07/01 05:09:28;;;;;;;6.40;5.45;;;;;;;16.56;81.08;98465.75;4133943;28;20045;-72
2022/07/01 05:11:28;;;;;;;8.20;6.15;;;;;;;16.51;80.84;98460.59;4134471;28;20424;-72
2022/07/01 05:13:28;;;;;;;8.45;5.72;;;;;;;16.47;81.10;98474.63;4136244;28;20045;-71
2022/07/01 05:15:29;;;;;;;6.10;5.43;;;;;;;16.51;81.13;98464.19;4139749;28;20144;-72
2022/07/01 05:22:07;;;;;;;5.50;4.95;;;;;;;16.52;80.91;98482.53;4138256;28;20099;-72
2022/07/01 05:24:08;;;;;;;4.95;4.45;;;;;;;16.56;81.16;98497.25;4138384;28;20045;-72
2022/07/01 05:26:08;;;;;;;5.50;5.00;;;;;;;16.57;80.67;98496.03;4138277;28;20041;-71
2022/07/01 05:28:09;;;;;;;10.10;5.30;;;;;;;16.52;81.25;98502.06;4138714;28;20304;-72
2022/07/01 05:30:10;;;;;;;6.03;4.20;;;;;;;16.58;81.21;98499.63;4138091;28;20455;-72
2022/07/01 05:32:10;;;;;;;5.75;4.85;;;;;;;16.45;82.24;98499.38;4138205;28;20034;-72
2022/07/01 05:34:11;;;;;;;8.63;4.60;;;;;;;16.40;82.75;98504.63;4135904;28;20030;-72
2022/07/01 05:36:11;;;;;;;10.13;5.05;;;;;;;16.44;83.12;98503.38;4139926;28;20064;-72
2022/07/01 05:38:11;;;;;;;5.35;4.45;;;;;;;16.45;83.48;98513.31;4135130;28;20064;-71
2022/07/01 05:40:12;;;;;;;5.13;4.63;;;;;;;16.45;83.89;98509.75;4138316;28;20032;-71
2022/07/01 05:42:12;;;;;;;5.72;5.00;;;;;;;16.40;84.07;98516.59;4138477;28;20120;-71
2022/07/01 05:44:13;;;;;;;6.40;5.22;;;;;;;16.38;83.97;98513.41;4139000;28;20029;-72
2022/07/01 05:46:13;;;;;;;6.47;4.90;;;;;;;16.40;84.57;98529.75;4139029;28;20029;-72
2022/07/01 05:48:14;;;;;;;5.53;5.03;;;;;;;16.42;85.05;98536.50;4137908;28;20117;-71
2022/07/01 05:50:15;;;;;;;6.40;4.95;;;;;;;16.37;86.40;98533.38;4138068;28;20082;-71
2022/07/01 05:52:15;;;;;;;4.95;4.40;;;;;;;16.21;86.18;98539.50;4139359;28;20076;-71
2022/07/01 05:54:16;;;;;;;6.43;4.88;;;;;;;16.00;87.74;98532.94;4137952;28;20034;-71
2022/07/01 05:56:16;;;;;;;5.78;5.18;;;;;;;15.95;88.89;98540.97;4138970;28;20042;-72
2022/07/01 05:58:16;;;;;;;5.60;5.10;;;;;;;15.98;89.11;98548.53;4139178;28;20123;-72
2022/07/01 06:00:17;;;;;;;6.55;5.15;;;;;;;15.88;90.08;98544.59;4137680;28;20061;-72
2022/07/01 06:02:17;;;;;;;6.18;5.32;;;;;;;15.84;90.97;98549.44;4138045;28;20042;-71
2022/07/01 06:04:18;;;;;;;7.35;5.15;;;;;;;15.82;91.05;98545.47;4137672;28;20026;-72
2022/07/01 06:06:19;;;;;;;8.07;5.60;;;;;;;15.70;91.01;98555.91;4137994;28;20030;-72
2022/07/01 06:08:19;;;;;;;6.88;5.82;;;;;;;15.61;91.15;98540.84;4136967;28;20096;-71
2022/07/01 06:10:20;;;;;;;6.95;5.90;;;;;;;15.30;91.71;98540.63;4137748;28;20430;-71
2022/07/01 06:12:20;;;;;;;6.28;5.45;;;;;;;15.34;92.64;98558.13;4138151;28;20837;-71
2022/07/01 06:14:20;;;;;;;8.02;5.43;;;;;;;15.36;92.69;98577.25;4137982;28;20044;-71
2022/07/01 06:16:21;;;;;;;7.25;6.47;;;;;;;15.34;94.74;98577.66;4138013;28;20069;-72
2022/07/01 06:18:21;;;;;;;8.82;6.47;;;;;;;15.27;96.27;98583.25;4138587;28;20037;-72
2022/07/01 06:20:22;;;;;;;9.65;6.47;;;;;;;15.24;96.45;98591.66;4136764;28;20064;-72
2022/07/01 06:22:22;;;;;;;7.22;6.45;;;;;;;15.23;96.48;98593.66;4138111;28;20034;-72
2022/07/01 06:24:23;;;;;;;9.20;6.68;;;;;;;15.13;98.07;98592.47;4137977;28;20056;-72
2022/07/01 06:26:24;;;;;;;8.10;6.60;;;;;;;15.13;97.55;98606.41;4136348;28;20397;-72
2022/07/01 06:28:29;;;;;;;11.07;7.20;;;;;;;15.09;97.64;98619.59;4137691;28;20037;-71
2022/07/01 06:30:29;;;;;;;8.45;6.05;;;;;;;15.07;98.50;98624.00;4138887;28;20088;-72
2022/07/01 06:32:30;;;;;;;10.15;6.63;;;;;;;15.06;99.72;98625.97;4137982;28;20026;-71
2022/07/01 06:34:30;;;;;;;7.72;6.70;;;;;;;15.06;100.00;98631.56;4137544;28;20030;-71
2022/07/01 06:36:30;;;;;;;8.27;7.15;;;;;;;15.01;100.00;98626.38;4137976;28;20478;-71
2022/07/01 06:38:31;;;;;;;10.27;6.53;;;;;;;15.01;100.00;98636.75;4136484;28;20022;-71
2022/07/01 06:40:31;;;;;;;9.75;6.10;;;;;;;15.00;100.00;98630.38;4137147;28;20026;-71
2022/07/01 06:42:33;;;;;;;6.85;6.15;;;;;;;15.03;100.00;98634.34;4137908;28;20028;-71
2022/07/01 06:44:33;;;;;;;9.80;6.80;;;;;;;15.01;100.00;98640.31;4137810;28;20030;-71
2022/07/01 06:46:33;;;;;;;7.82;6.32;;;;;;;14.93;100.00;98638.75;4138680;28;20018;-71
2022/07/01 06:48:35;;;;;;;8.07;6.95;;;;;;;14.90;100.00;98650.72;4137046;28;20109;-72
2022/07/01 06:50:35;;;;;;;7.93;6.07;;;;;;;14.94;100.00;98656.25;4138192;28;20084;-71
2022/07/01 06:52:36;;;;;;;7.85;6.82;;;;;;;14.93;100.00;98655.47;4137357;28;20037;-71
2022/07/01 06:54:37;;;;;;;9.23;6.68;;;;;;;14.88;100.00;98655.88;4137189;28;20502;-71
2022/07/01 06:56:37;;;;;;;7.93;6.25;;;;;;;14.88;100.00;98655.88;4137963;28;20413;-71
2022/07/01 06:58:38;;;;;;;9.88;7.05;;;;;;;14.89;100.00;98643.53;4136455;28;20103;-71
2022/07/01 07:00:39;;;;;;;9.70;7.40;;;;;;;14.92;100.00;98641.94;4137872;28;20033;-71
2022/07/01 07:02:39;;;;;;;10.60;7.70;;;;;;;14.92;100.00;98633.59;4137648;28;20133;-71
2022/07/01 07:04:39;;;;;;;9.70;7.97;;;;;;;14.73;100.00;98643.19;4137761;28;20311;-71
2022/07/01 07:06:40;;;;;;;13.40;8.60;;;;;;;14.69;100.00;98628.47;4136569;28;20465;-71
2022/07/01 07:08:40;;;;;;;9.73;7.75;;;;;;;14.63;100.00;98630.06;4136662;28;20029;-71
2022/07/01 07:10:41;;;;;;;9.55;7.75;;;;;;;14.56;100.00;98626.13;4138033;28;20072;-71
2022/07/01 07:12:41;;;;;;;10.43;7.95;;;;;;;14.64;100.00;98626.88;4135793;28;20618;-71
2022/07/01 07:14:42;;;;;;;11.35;7.15;;;;;;;14.59;100.00;98628.09;4136841;28;21179;-71
2022/07/01 07:16:42;;;;;;;12.23;7.70;;;;;;;14.59;100.00;98619.75;4137031;28;20035;-71
2022/07/01 07:18:42;;;;;;;9.35;6.70;;;;;;;14.60;100.00;98610.19;4135090;28;20057;-71
2022/07/01 07:20:43;;;;;;;10.10;7.03;;;;;;;14.63;100.00;98614.16;4137521;28;20415;-71
2022/07/01 07:22:43;;;;;;;6.97;5.97;;;;;;;14.59;100.00;98605.03;4137279;28;20104;-71
2022/07/01 07:24:43;;;;;;;6.95;6.22;;;;;;;14.50;100.00;98608.25;4137882;28;20022;-72
2022/07/01 07:26:44;;;;;;;9.38;6.70;;;;;;;14.42;100.00;98603.06;4136874;28;20080;-72
2022/07/01 07:28:44;;;;;;;8.48;6.63;;;;;;;14.43;100.00;98608.22;4136708;28;20084;-70
2022/07/01 07:30:44;;;;;;;9.95;7.03;;;;;;;14.47;100.00;98614.59;4136249;28;20369;-71
2022/07/01 07:32:45;;;;;;;7.07;6.07;;;;;;;14.52;100.00;98613.41;4137228;28;20541;-71
2022/07/01 07:34:45;;;;;;;8.00;6.60;;;;;;;14.50;100.00;98602.69;4136656;28;20030;-71
2022/07/01 07:36:46;;;;;;;7.53;6.47;;;;;;;14.59;100.00;98605.03;4137710;28;20029;-71
2022/07/01 07:38:46;;;;;;;8.32;6.47;;;;;;;14.65;100.00;98611.78;4135699;28;20021;-71
2022/07/01 07:40:46;;;;;;;7.43;5.95;;;;;;;14.69;100.00;98604.22;4137072;28;20036;-71
2022/07/01 07:42:48;;;;;;;8.05;6.68;;;;;;;14.80;100.00;98624.47;4137113;28;20578;-71
2022/07/01 07:44:48;;;;;;;8.77;6.13;;;;;;;14.89;100.00;98635.16;4137555;28;20038;-71
2022/07/01 07:46:49;;;;;;;7.75;5.78;;;;;;;15.08;100.00;98640.28;4136404;28;20622;-71
2022/07/01 07:48:49;;;;;;;11.02;6.05;;;;;;;15.20;100.00;98636.25;4136955;28;20104;-71
2022/07/01 07:50:50;;;;;;;6.97;5.78;;;;;;;15.31;99.73;98641.78;4136368;28;20180;-71
2022/07/01 07:52:50;;;;;;;6.50;5.47;;;;;;;15.30;100.00;98646.56;4137204;28;20038;-71
2022/07/01 07:54:51;;;;;;;7.53;6.20;;;;;;;15.31;99.73;98662.09;4137678;28;20034;-71
2022/07/01 07:56:51;;;;;;;7.45;6.32;;;;;;;15.37;98.86;98666.03;4137025;28;20444;-71
2022/07/01 07:58:51;;;;;;;7.72;5.40;;;;;;;15.41;100.00;98666.03;4136532;28;20038;-71
2022/07/01 08:00:51;;;;;;;6.60;5.55;;;;;;;15.48;99.91;98668.00;4137023;28;20046;-71
2022/07/01 08:02:52;;;;;;;10.48;6.47;;;;;;;15.46;98.48;98677.53;4136484;28;20025;-71
2022/07/01 08:04:52;;;;;;;6.00;5.40;;;;;;;15.34;97.88;98666.84;4136909;28;20045;-71
2022/07/01 08:06:52;;;;;;;6.60;5.40;;;;;;;15.32;98.87;98668.47;4135854;28;20625;-71
2022/07/01 08:08:53;;;;;;;6.40;5.50;;;;;;;15.30;97.87;98674.44;4135997;28;20106;-71
2022/07/01 08:10:53;;;;;;;6.15;5.50;;;;;;;15.24;98.32;98676.06;4137280;28;20501;-71
2022/07/01 08:12:56;;;;;;;6.40;5.63;;;;;;;15.28;98.09;98676.84;4135680;28;20077;-71
2022/07/01 08:14:57;;;;;;;6.28;5.65;;;;;;;15.21;99.59;98673.28;4136188;28;20041;-71
2022/07/01 08:16:57;;;;;;;7.82;6.28;;;;;;;15.29;98.13;98684.00;4137163;28;20108;-71
2022/07/01 08:18:57;;;;;;;8.30;6.60;;;;;;;15.12;98.11;98688.44;4134721;28;20088;-71
2022/07/01 08:20:58;;;;;;;8.35;6.85;;;;;;;15.06;98.88;98684.50;4135931;28;20581;-71
2022/07/01 08:22:58;;;;;;;8.63;6.95;;;;;;;15.05;99.94;98691.25;4136768;28;20388;-72
2022/07/01 08:24:58;;;;;;;11.55;6.07;;;;;;;15.16;98.73;98689.22;4137141;28;20033;-71
2022/07/01 08:26:59;;;;;;;6.95;6.03;;;;;;;15.28;96.72;98687.19;4136414;28;20034;-71
2022/07/01 08:28:59;;;;;;;8.65;7.03;;;;;;;15.20;98.61;98685.63;4135964;28;20476;-71
2022/07/01 08:30:59;;;;;;;7.95;6.88;;;;;;;15.27;100.00;98686.41;4136619;28;20034;-71
2022/07/01 08:33:00;;;;;;;7.97;6.75;;;;;;;15.23;98.90;98698.78;4135779;28;20061;-71
2022/07/01 08:35:00;;;;;;;8.77;7.50;;;;;;;15.34;99.17;98699.53;4136987;28;20145;-71
2022/07/01 08:37:04;;;;;;;9.27;8.15;;;;;;;15.17;98.67;98709.53;4136985;28;20113;-71
2022/07/01 08:39:04;;;;;;;9.88;7.38;;;;;;;15.19;99.63;98704.34;4135765;28;20026;-71
2022/07/01 08:41:05;;;;;;;8.48;6.57;;;;;;;15.23;97.34;98704.34;4136393;28;20057;-71
2022/07/01 08:43:06;;;;;;;7.47;6.57;;;;;;;15.25;97.74;98713.88;4137092;28;20025;-71
2022/07/01 08:45:07;;;;;;;8.63;6.88;;;;;;;15.12;98.91;98718.28;4135289;28;20432;-71
2022/07/01 08:47:12;;;;;;;8.80;6.75;;;;;;;15.13;99.25;98728.25;4136415;28;20113;-71
2022/07/01 08:49:13;;;;;;;8.88;6.82;;;;;;;15.08;98.45;98714.75;4136923;28;20378;-71
2022/07/01 08:51:14;;;;;;;9.05;7.32;;;;;;;14.94;99.07;98721.13;4140443;28;20041;-71
2022/07/01 08:53:14;;;;;;;9.63;7.25;;;;;;;14.98;100.00;98727.50;4138915;28;20022;-71
2022/07/01 08:55:15;;;;;;;7.63;6.68;;;;;;;14.92;99.58;98731.09;4139284;28;20045;-71
2022/07/01 08:57:21;;;;;;;7.45;6.57;;;;;;;14.86;99.91;98737.06;4138781;28;20358;-71
2022/07/01 08:59:23;;;;;;;9.02;6.70;;;;;;;14.84;100.00;98733.88;4139301;28;20421;-71
2022/07/01 09:01:25;;;;;;;;;;;;;;;14.86;99.75;98745.41;4138992;28;20108;-71
2022/07/01 09:03:25;;;;;;;8.52;6.57;;;;;;;14.91;98.36;98749.81;4139016;28;19914;-71
2022/07/01 09:05:27;;;;;;;9.20;7.40;;;;;;;14.87;100.00;98743.44;4139852;28;20026;-71
2022/07/01 09:07:33;;;;;;;10.20;7.25;;;;;;;14.83;100.00;98756.56;4138660;28;20045;-71
2022/07/01 09:09:38;;;;;;;8.93;7.00;;;;;;;14.80;100.00;98755.38;4139193;28;20065;-71
2022/07/01 09:11:45;;;;;;;7.40;6.15;;;;;;;14.84;100.00;98758.16;4139135;28;20034;-71
2022/07/01 09:14:06;;;;;;;7.28;6.45;;;;;;;14.83;100.00;98764.94;4138758;28;20029;-71
2022/07/01 09:16:16;;;;;;;8.25;6.50;;;;;;;14.77;100.00;98772.09;4138431;28;20224;-71
2022/07/01 09:18:18;;;;;;;8.30;6.30;;;;;;;14.78;100.00;98763.34;4138468;28;20086;-71
2022/07/01 09:20:26;;;;;;;8.70;6.70;;;;;;;14.86;100.00;98770.50;4139828;28;20148;-71
2022/07/01 09:22:27;;;;;;;8.68;7.07;;;;;;;14.89;100.00;98768.88;4139248;28;20025;-71
2022/07/01 09:24:37;;;;;;;9.90;7.20;;;;;;;14.95;100.00;98772.88;4138694;28;20052;-71
2022/07/01 09:26:39;;;;;;;14.73;7.45;;;;;;;14.96;100.00;98773.66;4139036;28;20042;-71
2022/07/01 09:28:39;;;;;;;9.65;7.47;;;;;;;14.92;100.00;98776.47;4137522;28;20034;-71
2022/07/01 09:30:43;;;;;;;10.05;8.30;;;;;;;14.90;100.00;98792.78;4139868;28;20113;-71
2022/07/01 09:32:43;;;;;;;10.82;8.10;;;;;;;14.86;100.00;98783.63;4138904;28;20037;-71